createdAt,value
2018-11-11T00:01:50.011Z,98253.94
2018-11-11T00:04:18.491Z,98255.47
2018-11-11T00:06:47.514Z,98253.48
2018-11-11T00:09:16.078Z,98262.61
2018-11-11T00:11:44.585Z,98259.09
2018-11-11T00:14:13.212Z,98259.46
2018-11-11T00:16:41.977Z,98244.94
2018-11-11T00:19:10.611Z,98261.92
2018-11-11T00:21:39.190Z,98256.44
2018-11-11T00:24:08.438Z,98257.93
2018-11-11T00:26:36.908Z,98262.41
2018-11-11T00:29:06.337Z,98279.07
2018-11-11T00:31:35.953Z,98289.16
2018-11-11T00:34:05.250Z,98304.01
2018-11-11T00:36:33.767Z,98297.52
2018-11-11T00:39:03.485Z,98298.72
2018-11-11T00:41:32.108Z,98310.41
2018-11-11T00:44:00.624Z,98310.08
2018-11-11T00:46:29.137Z,98304.17
2018-11-11T00:48:57.600Z,98305.87
2018-11-11T00:51:26.141Z,98310.55
2018-11-11T00:53:54.655Z,98309.86
2018-11-11T00:56:23.183Z,98304.70
2018-11-11T00:58:51.631Z,98306.19
2018-11-11T01:01:20.202Z,98300.34
2018-11-11T01:03:48.626Z,98306.71
2018-11-11T01:06:17.088Z,98301.71
2018-11-11T01:08:45.616Z,98299.56
2018-11-11T01:11:14.124Z,98296.41
2018-11-11T01:13:42.738Z,98301.25
2018-11-11T01:16:11.254Z,98302.23
2018-11-11T01:18:39.740Z,98307.52
2018-11-11T01:21:08.252Z,98305.87
2018-11-11T01:23:36.700Z,98297.23
2018-11-11T01:26:05.207Z,98307.20
2018-11-11T01:28:33.693Z,98319.51
2018-11-11T01:31:02.285Z,98315.19
2018-11-11T01:33:31.761Z,98322.53
2018-11-11T01:36:01.288Z,98314.86
2018-11-11T01:38:30.548Z,98318.05
2018-11-11T01:40:59.009Z,98322.88
2018-11-11T01:43:27.493Z,98317.71
2018-11-11T01:45:56.016Z,98323.20
2018-11-11T01:48:24.476Z,98325.19
2018-11-11T01:50:52.978Z,98316.55
2018-11-11T01:53:22.434Z,98318.57
2018-11-11T01:55:50.996Z,98317.56
2018-11-11T01:58:19.477Z,98321.06
2018-11-11T02:00:47.914Z,98310.58
2018-11-11T02:03:16.331Z,98307.39
2018-11-11T02:05:44.781Z,98311.88
2018-11-11T02:08:13.244Z,98306.23
2018-11-11T02:10:41.789Z,98311.06
2018-11-11T02:13:10.264Z,98299.92
2018-11-11T02:15:38.752Z,98295.27
2018-11-11T02:18:07.218Z,98294.93
2018-11-11T02:20:35.647Z,98269.48
2018-11-11T02:23:04.118Z,98303.59
2018-11-11T02:25:32.591Z,98306.72
2018-11-11T02:28:01.092Z,98305.41
2018-11-11T02:30:29.522Z,98300.93
2018-11-11T02:32:58.034Z,98310.39
2018-11-11T02:35:26.510Z,98304.58
2018-11-11T02:37:54.998Z,98316.70
2018-11-11T02:40:23.443Z,98313.55
2018-11-11T02:42:51.853Z,98311.09
2018-11-11T02:45:20.847Z,98324.53
2018-11-11T02:47:49.880Z,98322.36
2018-11-11T02:50:19.309Z,98317.72
2018-11-11T02:52:48.155Z,98309.94
2018-11-11T02:55:17.115Z,98300.80
2018-11-11T02:57:46.331Z,98306.45
2018-11-11T03:00:15.994Z,98304.26
2018-11-11T03:02:45.151Z,98291.64
2018-11-11T03:05:14.861Z,98298.78
2018-11-11T03:07:43.343Z,98295.95
2018-11-11T03:10:12.695Z,98294.61
2018-11-11T03:12:41.400Z,98304.11
2018-11-11T03:15:10.992Z,98298.27
2018-11-11T03:17:39.611Z,98296.80
2018-11-11T03:20:08.968Z,98295.64
2018-11-11T03:22:37.419Z,98289.80
2018-11-11T03:25:07.423Z,98297.11
2018-11-11T03:27:35.900Z,98302.75
2018-11-11T03:30:04.853Z,98297.27
2018-11-11T03:32:33.306Z,98298.78
2018-11-11T03:35:01.757Z,98300.94
2018-11-11T03:37:30.175Z,98298.63
2018-11-11T03:39:58.604Z,98293.28
2018-11-11T03:42:27.101Z,98292.95
2018-11-11T03:44:55.543Z,98291.78
2018-11-11T03:47:24.021Z,98294.13
2018-11-11T03:49:52.519Z,98288.30
2018-11-11T03:52:20.981Z,98282.50
2018-11-11T03:54:49.401Z,98288.14
2018-11-11T03:57:17.964Z,98287.30
2018-11-11T03:59:46.429Z,98274.34
2018-11-11T04:02:14.901Z,98277.33
2018-11-11T04:04:43.484Z,98279.97
2018-11-11T04:07:11.943Z,98285.48
2018-11-11T04:09:40.969Z,98295.12
2018-11-11T04:12:09.457Z,98302.93
2018-11-11T04:14:37.972Z,98306.59
2018-11-11T04:17:06.445Z,98314.91
2018-11-11T04:19:34.958Z,98312.25
2018-11-11T04:22:08.620Z,98319.23
2018-11-11T04:24:37.083Z,98307.23
2018-11-11T04:27:05.729Z,98307.56
2018-11-11T04:29:34.241Z,98305.11
2018-11-11T04:32:02.747Z,98311.55
2018-11-11T04:34:31.213Z,98308.76
2018-11-11T04:37:00.025Z,98316.56
2018-11-11T04:39:28.597Z,98305.27
2018-11-11T04:41:57.874Z,98315.27
2018-11-11T04:44:26.362Z,98323.58
2018-11-11T04:46:55.290Z,98331.20
2018-11-11T04:49:24.006Z,98333.38
2018-11-11T04:51:52.413Z,98339.19
2018-11-11T04:54:25.714Z,98344.17
2018-11-11T04:56:54.242Z,98342.31
2018-11-11T04:59:22.761Z,98338.84
2018-11-11T05:01:51.205Z,98345.98
2018-11-11T05:04:19.776Z,98350.48
2018-11-11T05:06:48.738Z,98357.78
2018-11-11T05:09:17.235Z,98352.80
2018-11-11T05:11:45.696Z,98358.12
2018-11-11T05:14:14.211Z,98353.80
2018-11-11T05:16:42.704Z,98350.80
2018-11-11T05:19:11.676Z,98346.46
2018-11-11T05:21:40.307Z,98351.97
2018-11-11T05:24:08.759Z,98363.11
2018-11-11T05:26:38.118Z,98380.08
2018-11-11T05:29:06.646Z,98381.39
2018-11-11T05:31:35.075Z,98384.53
2018-11-11T05:34:03.560Z,98377.91
2018-11-11T05:36:32.087Z,98383.08
2018-11-11T05:39:00.511Z,98374.74
2018-11-11T05:41:29.011Z,98377.26
2018-11-11T05:43:57.523Z,98383.38
2018-11-11T05:46:27.034Z,98379.73
2018-11-11T05:48:55.510Z,98379.41
2018-11-11T05:51:23.927Z,98382.88
2018-11-11T05:53:52.436Z,98381.39
2018-11-11T05:56:20.925Z,98388.84
2018-11-11T05:58:50.392Z,98380.52
2018-11-11T06:01:18.918Z,98379.06
2018-11-11T06:03:47.427Z,98378.89
2018-11-11T06:06:15.909Z,98365.74
2018-11-11T06:08:44.379Z,98363.39
2018-11-11T06:11:12.832Z,98370.22
2018-11-11T06:13:41.674Z,98375.01
2018-11-11T06:16:10.147Z,98382.17
2018-11-11T06:18:38.579Z,98382.64
2018-11-11T06:21:07.091Z,98401.03
2018-11-11T06:23:35.558Z,98411.20
2018-11-11T06:26:04.067Z,98416.30
2018-11-11T06:28:32.572Z,98425.06
2018-11-11T06:31:01.063Z,98422.79
2018-11-11T06:33:29.543Z,98428.74
2018-11-11T06:35:58.045Z,98423.55
2018-11-11T06:38:26.603Z,98426.88
2018-11-11T06:40:55.096Z,98428.69
2018-11-11T06:43:23.544Z,98435.23
2018-11-11T06:45:52.051Z,98436.38
2018-11-11T06:48:20.547Z,98439.04
2018-11-11T06:50:49.043Z,98447.68
2018-11-11T06:53:18.499Z,98455.68
2018-11-11T06:55:46.978Z,98456.16
2018-11-11T06:58:15.477Z,98450.64
2018-11-11T07:00:44.022Z,98457.38
2018-11-11T07:03:23.381Z,98453.20
2018-11-11T07:05:52.734Z,98456.70
2018-11-11T07:08:21.192Z,98454.89
2018-11-11T07:10:49.712Z,98458.02
2018-11-11T07:13:18.134Z,98450.21
2018-11-11T07:15:46.768Z,98457.20
2018-11-11T07:18:15.291Z,98463.17
2018-11-11T07:20:43.830Z,98459.16
2018-11-11T07:23:12.270Z,98480.75
2018-11-11T07:25:40.986Z,98480.23
2018-11-11T07:28:09.535Z,98484.63
2018-11-11T07:30:38.041Z,98485.31
2018-11-11T07:33:06.610Z,98482.30
2018-11-11T07:35:35.114Z,98496.67
2018-11-11T07:38:03.615Z,98502.88
2018-11-11T07:40:32.066Z,98498.09
2018-11-11T07:43:00.623Z,98500.11
2018-11-11T07:45:29.089Z,98519.20
2018-11-11T07:47:57.587Z,98510.58
2018-11-11T07:50:26.098Z,98518.05
2018-11-11T07:52:54.580Z,98522.72
2018-11-11T07:55:23.056Z,98524.59
2018-11-11T07:57:51.752Z,98576.02
2018-11-11T08:00:20.220Z,98525.02
2018-11-11T08:02:48.666Z,98542.74
2018-11-11T08:05:17.187Z,98532.88
2018-11-11T08:07:45.611Z,98528.92
2018-11-11T08:10:25.180Z,98530.06
2018-11-11T08:12:53.747Z,98531.70
2018-11-11T08:15:25.625Z,98525.09
2018-11-11T08:17:55.295Z,98521.42
2018-11-11T08:20:23.759Z,98526.11
2018-11-11T08:22:52.614Z,98518.61
2018-11-11T08:25:21.841Z,98517.45
2018-11-11T08:27:50.320Z,98516.42
2018-11-11T08:30:18.787Z,98527.45
2018-11-11T08:32:47.249Z,98537.08
2018-11-11T08:35:15.667Z,98535.61
2018-11-11T08:37:45.183Z,98537.45
2018-11-11T08:40:13.885Z,98540.75
2018-11-11T08:42:42.576Z,98547.42
2018-11-11T08:45:13.015Z,98558.55
2018-11-11T08:47:42.057Z,98554.05
2018-11-11T08:50:11.641Z,98554.83
2018-11-11T08:52:40.436Z,98551.57
2018-11-11T08:55:08.985Z,98547.26
2018-11-11T08:57:37.568Z,98552.22
2018-11-11T09:00:10.100Z,98554.02
2018-11-11T09:02:38.942Z,98559.80
2018-11-11T09:05:07.779Z,98557.89
2018-11-11T09:07:36.475Z,98568.76
2018-11-11T09:10:05.869Z,98565.73
2018-11-11T09:12:34.562Z,98569.05
2018-11-11T09:15:03.064Z,98566.91
2018-11-11T09:17:31.652Z,98573.08
2018-11-11T09:20:00.189Z,98565.86
2018-11-11T09:22:29.412Z,98565.83
2018-11-11T09:24:58.819Z,98566.38
2018-11-11T09:27:27.512Z,98554.06
2018-11-11T09:29:56.030Z,98561.66
2018-11-11T09:32:24.528Z,98567.20
2018-11-11T09:34:52.979Z,98564.63
2018-11-11T09:37:21.555Z,98568.89
2018-11-11T09:39:49.983Z,98568.61
2018-11-11T09:42:18.813Z,98564.70
2018-11-11T09:44:48.354Z,98558.33
2018-11-11T09:47:16.767Z,98558.13
2018-11-11T09:49:45.248Z,98565.25
2018-11-11T09:52:13.660Z,98574.24
2018-11-11T09:54:42.107Z,98567.50
2018-11-11T09:57:10.658Z,98570.39
2018-11-11T09:59:41.137Z,98573.50
2018-11-11T10:02:09.739Z,98569.75
2018-11-11T10:04:44.387Z,98572.27
2018-11-11T10:07:18.038Z,98561.39
2018-11-11T10:09:56.125Z,98549.12
2018-11-11T10:12:33.028Z,98553.32
2018-11-11T10:15:05.935Z,98524.33
2018-11-11T10:17:39.733Z,98549.76
2018-11-11T10:20:14.309Z,98553.28
2018-11-11T10:23:47.278Z,98539.08
2018-11-11T10:26:22.606Z,98549.83
2018-11-11T10:28:56.416Z,98551.23
2018-11-11T10:32:28.534Z,98553.66
2018-11-11T10:35:03.256Z,98557.50
2018-11-11T10:37:43.547Z,98554.34
2018-11-11T10:40:16.223Z,98562.72
2018-11-11T10:42:49.118Z,98564.77
2018-11-11T10:45:21.987Z,98569.20
2018-11-11T10:47:58.205Z,98559.44
2018-11-11T10:50:30.892Z,98554.65
2018-11-11T10:52:59.845Z,98550.80
2018-11-11T10:55:28.395Z,98558.30
2018-11-11T10:57:57.407Z,98551.13
2018-11-11T11:00:28.016Z,98550.63
2018-11-11T11:02:57.718Z,98538.48
2018-11-11T11:05:26.195Z,98535.89
2018-11-11T11:07:54.988Z,98536.39
2018-11-11T11:10:24.625Z,98530.08
2018-11-11T11:12:53.563Z,98527.52
2018-11-11T11:15:22.049Z,98539.84
2018-11-11T11:17:50.995Z,98532.63
2018-11-11T11:20:19.448Z,98529.33
2018-11-11T11:22:47.941Z,98527.58
2018-11-11T11:25:16.486Z,98547.59
2018-11-11T11:27:45.157Z,98543.25
2018-11-11T11:30:14.539Z,98545.72
2018-11-11T11:32:43.043Z,98545.85
2018-11-11T11:35:13.019Z,98553.53
2018-11-11T11:37:41.575Z,98565.64
2018-11-11T11:40:10.980Z,98561.33
2018-11-11T11:42:40.107Z,98569.55
2018-11-11T11:45:09.948Z,98568.11
2018-11-11T11:47:38.452Z,98582.61
2018-11-11T11:50:08.589Z,98595.14
2018-11-11T11:52:37.252Z,98600.53
2018-11-11T11:55:06.161Z,98596.88
2018-11-11T11:57:34.734Z,98605.93
2018-11-11T12:00:03.252Z,98597.11
2018-11-11T12:02:34.279Z,98598.14
2018-11-11T12:05:02.811Z,98592.50
2018-11-11T12:07:31.327Z,98599.34
2018-11-11T12:09:59.851Z,98597.37
2018-11-11T12:12:28.631Z,98595.12
2018-11-11T12:14:57.080Z,98598.04
2018-11-11T12:17:25.608Z,98603.43
2018-11-11T12:19:54.064Z,98602.92
2018-11-11T12:22:23.207Z,98607.73
2018-11-11T12:24:51.641Z,98608.75
2018-11-11T12:27:20.075Z,98600.32
2018-11-11T12:29:48.565Z,98595.25
2018-11-11T12:32:16.998Z,98599.33
2018-11-11T12:34:45.475Z,98599.94
2018-11-11T12:37:13.944Z,98597.77
2018-11-11T12:39:42.610Z,98597.59
2018-11-11T12:42:10.988Z,98583.02
2018-11-11T12:44:39.466Z,98581.66
2018-11-11T12:47:07.935Z,98581.84
2018-11-11T12:49:36.378Z,98573.25
2018-11-11T12:52:04.879Z,98576.05
2018-11-11T12:54:33.360Z,98580.08
2018-11-11T12:57:03.834Z,98566.67
2018-11-11T12:59:32.318Z,98562.83
2018-11-11T13:02:01.496Z,98550.38
2018-11-11T13:04:29.963Z,98542.98
2018-11-11T13:06:58.611Z,98541.05
2018-11-11T13:09:27.076Z,98548.00
2018-11-11T13:11:55.655Z,98542.83
2018-11-11T13:14:24.202Z,98541.02
2018-11-11T13:16:53.446Z,98545.67
2018-11-11T13:19:21.968Z,98548.89
2018-11-11T13:21:50.833Z,98538.70
2018-11-11T13:24:20.352Z,98537.63
2018-11-11T13:26:48.799Z,98539.64
2018-11-11T13:29:17.259Z,98549.33
2018-11-11T13:31:45.780Z,98554.78
2018-11-11T13:34:14.238Z,98556.12
2018-11-11T13:36:42.759Z,98549.59
2018-11-11T13:39:13.055Z,98541.91
2018-11-11T13:41:42.219Z,98548.80
2018-11-11T13:44:10.642Z,98550.04
2018-11-11T13:46:39.493Z,98546.39
2018-11-11T13:49:08.065Z,98546.66
2018-11-11T13:51:37.605Z,98534.33
2018-11-11T13:54:06.528Z,98540.80
2018-11-11T13:56:35.081Z,98542.45
2018-11-11T13:59:03.634Z,98543.28
2018-11-11T14:01:32.732Z,98523.82
2018-11-11T14:04:01.184Z,98536.28
2018-11-11T14:06:29.634Z,98526.99
2018-11-11T14:08:58.109Z,98535.21
2018-11-11T14:11:26.598Z,98531.77
2018-11-11T14:13:55.358Z,98527.88
2018-11-11T14:16:23.827Z,98530.91
2018-11-11T14:18:53.401Z,98543.75
2018-11-11T14:21:21.811Z,98554.97
2018-11-11T14:23:50.262Z,98553.88
2018-11-11T14:26:18.828Z,98548.45
2018-11-11T14:28:47.732Z,98545.42
2018-11-11T14:31:16.196Z,98547.27
2018-11-11T14:33:44.684Z,98544.97
2018-11-11T14:36:13.220Z,98542.98
2018-11-11T14:38:42.551Z,98543.84
2018-11-11T14:41:11.053Z,98543.98
2018-11-11T14:43:39.567Z,98540.31
2018-11-11T14:46:08.100Z,98533.62
2018-11-11T14:48:37.231Z,98534.83
2018-11-11T14:51:06.115Z,98533.06
2018-11-11T14:53:34.650Z,98530.56
2018-11-11T14:56:03.195Z,98536.08
2018-11-11T14:58:31.928Z,98535.91
2018-11-11T15:01:00.323Z,98523.58
2018-11-11T15:03:28.926Z,98528.98
2018-11-11T15:05:57.383Z,98528.66
2018-11-11T15:08:25.775Z,98531.87
2018-11-11T15:10:54.273Z,98535.30
2018-11-11T15:13:22.748Z,98544.48
2018-11-11T15:15:51.431Z,98549.33
2018-11-11T15:18:19.937Z,98548.08
2018-11-11T15:20:48.574Z,98556.16
2018-11-11T15:23:16.971Z,98556.67
2018-11-11T15:25:45.475Z,98564.06
2018-11-11T15:28:13.919Z,98557.62
2018-11-11T15:30:42.525Z,98561.02
2018-11-11T15:33:10.934Z,98548.52
2018-11-11T15:35:39.341Z,98549.07
2018-11-11T15:38:07.794Z,98556.73
2018-11-11T15:40:37.491Z,98558.58
2018-11-11T15:43:06.828Z,98559.44
2018-11-11T15:45:35.852Z,98565.64
2018-11-11T15:48:05.846Z,98575.09
2018-11-11T15:50:35.117Z,98580.98
2018-11-11T15:53:06.839Z,98575.91
2018-11-11T15:55:36.491Z,98583.30
2018-11-11T15:58:05.550Z,98582.48
2018-11-11T16:00:35.545Z,98590.48
2018-11-11T16:03:04.108Z,98599.83
2018-11-11T16:05:32.553Z,98605.86
2018-11-11T16:08:01.640Z,98611.39
2018-11-11T16:10:31.131Z,98612.88
2018-11-11T16:12:59.567Z,98622.58
2018-11-11T16:15:33.790Z,98620.27
2018-11-11T16:18:04.771Z,98509.14
2018-11-11T16:20:33.859Z,98621.94
2018-11-11T16:23:03.214Z,98626.23
2018-11-11T16:25:31.942Z,98629.09
2018-11-11T16:28:00.516Z,98625.73
2018-11-11T16:30:30.333Z,98632.23
2018-11-11T16:32:59.425Z,98636.52
2018-11-11T16:35:28.643Z,98640.19
2018-11-11T16:37:57.617Z,98641.54
2018-11-11T16:40:27.420Z,98643.87
2018-11-11T16:42:56.131Z,98635.38
2018-11-11T16:45:25.895Z,98635.38
2018-11-11T16:47:54.591Z,98638.72
2018-11-11T16:50:26.587Z,98635.31
2018-11-11T16:52:55.956Z,98628.45
2018-11-11T16:55:25.805Z,98621.30
2018-11-11T16:57:54.990Z,98618.94
2018-11-11T17:00:25.627Z,98623.70
2018-11-11T17:02:55.429Z,98627.47
2018-11-11T17:05:25.911Z,98637.88
2018-11-11T17:07:55.666Z,98641.39
2018-11-11T17:10:27.110Z,98633.64
2018-11-11T17:12:56.715Z,98633.86
2018-11-11T17:15:26.929Z,98630.11
2018-11-11T17:17:56.259Z,98626.81
2018-11-11T17:20:26.598Z,98624.45
2018-11-11T17:22:57.040Z,98630.19
2018-11-11T17:25:27.047Z,98632.91
2018-11-11T17:27:56.353Z,98633.21
2018-11-11T17:30:27.683Z,98629.30
2018-11-11T17:32:57.520Z,98629.81
2018-11-11T17:35:26.935Z,98619.33
2018-11-11T17:37:56.276Z,98630.06
2018-11-11T17:40:27.802Z,98619.72
2018-11-11T17:43:02.985Z,98629.80
2018-11-11T17:45:31.473Z,98633.70
2018-11-11T17:48:00.992Z,98630.41
2018-11-11T17:50:30.646Z,98626.68
2018-11-11T17:53:00.077Z,98628.05
2018-11-11T17:55:29.461Z,98618.38
2018-11-11T17:57:57.814Z,98620.08
2018-11-11T18:00:27.317Z,98625.52
2018-11-11T18:02:59.013Z,98623.42
2018-11-11T18:05:28.615Z,98630.27
2018-11-11T18:07:57.198Z,98626.63
2018-11-11T18:10:26.099Z,98635.72
2018-11-11T18:12:56.498Z,98638.70
2018-11-11T18:15:27.412Z,98641.17
2018-11-11T18:17:56.152Z,98643.48
2018-11-11T18:20:27.078Z,98641.44
2018-11-11T18:22:56.299Z,98638.69
2018-11-11T18:25:24.791Z,98634.80
2018-11-11T18:27:55.943Z,98638.58
2018-11-11T18:30:27.079Z,98639.62
2018-11-11T18:32:55.566Z,98646.87
2018-11-11T18:35:24.079Z,98652.24
2018-11-11T18:37:52.719Z,98646.80
2018-11-11T18:40:23.762Z,98649.73
2018-11-11T18:42:52.984Z,98654.41
2018-11-11T18:45:22.911Z,98662.95
2018-11-11T18:47:51.834Z,98665.34
2018-11-11T18:50:25.764Z,98666.25
2018-11-11T18:52:54.249Z,98665.30
2018-11-11T18:55:22.755Z,98668.23
2018-11-11T18:57:51.305Z,98656.90
2018-11-11T19:00:21.223Z,98658.86
2018-11-11T19:02:51.220Z,98662.27
2018-11-11T19:05:20.520Z,98653.10
2018-11-11T19:07:49.335Z,98649.72
2018-11-11T19:10:19.316Z,98659.94
2018-11-11T19:12:48.623Z,98661.08
2018-11-11T19:15:18.088Z,98655.27
2018-11-11T19:17:47.361Z,98657.55
2018-11-11T19:20:16.993Z,98653.91
2018-11-11T19:22:45.450Z,98662.08
2018-11-11T19:25:16.745Z,98659.80
2018-11-11T19:27:46.546Z,98669.61
2018-11-11T19:30:15.995Z,98675.98
2018-11-11T19:32:45.056Z,98681.96
2018-11-11T19:35:14.489Z,98688.93
2018-11-11T19:37:43.673Z,98691.84
2018-11-11T19:40:19.503Z,98696.97
2018-11-11T19:42:49.283Z,98701.29
2018-11-11T19:45:19.995Z,98690.41
2018-11-11T19:47:48.848Z,98691.27
2018-11-11T19:50:18.963Z,98700.34
2018-11-11T19:52:48.592Z,98700.91
2018-11-11T19:55:17.907Z,98704.38
2018-11-11T19:57:46.328Z,98708.46
2018-11-11T20:00:17.075Z,98709.41
2018-11-11T20:02:46.811Z,98712.64
2018-11-11T20:05:15.933Z,98726.44
2018-11-11T20:07:46.452Z,98724.14
2018-11-11T20:10:16.050Z,98734.75
2018-11-11T20:12:45.809Z,98742.41
2018-11-11T20:15:16.733Z,98755.12
2018-11-11T20:17:47.539Z,98760.81
2018-11-11T20:20:25.088Z,98764.91
2018-11-11T20:22:53.538Z,98765.72
2018-11-11T20:25:22.365Z,98771.05
2018-11-11T20:27:50.921Z,98763.00
2018-11-11T20:30:22.920Z,98758.34
2018-11-11T20:32:51.503Z,98760.34
2018-11-11T20:35:21.291Z,98751.17
2018-11-11T20:37:49.804Z,98747.53
2018-11-11T20:40:19.787Z,98519.67
2018-11-11T20:42:48.812Z,98777.47
2018-11-11T20:45:18.658Z,98773.14
2018-11-11T20:47:47.858Z,98781.13
2018-11-11T20:50:17.663Z,98783.95
2018-11-11T20:52:47.711Z,98796.81
2018-11-11T20:55:17.024Z,98775.14
2018-11-11T20:57:45.476Z,98821.21
2018-11-11T21:00:18.889Z,98819.69
2018-11-11T21:02:47.381Z,98809.95
2018-11-11T21:05:17.239Z,98814.64
2018-11-11T21:07:45.932Z,98814.16
2018-11-11T21:10:15.564Z,98818.16
2018-11-11T21:12:44.148Z,98825.20
2018-11-11T21:15:14.400Z,98833.92
2018-11-11T21:17:43.364Z,98829.55
2018-11-11T21:20:12.963Z,98836.03
2018-11-11T21:22:41.742Z,98839.21
2018-11-11T21:25:10.384Z,98835.89
2018-11-11T21:27:39.558Z,98838.62
2018-11-11T21:30:10.540Z,98835.33
2018-11-11T21:32:39.008Z,98841.66
2018-11-11T21:35:07.727Z,98840.06
2018-11-11T21:37:36.293Z,98850.50
2018-11-11T21:40:05.311Z,98844.54
2018-11-11T21:42:34.571Z,98848.50
2018-11-11T21:45:03.046Z,98845.61
2018-11-11T21:47:31.524Z,98850.09
2018-11-11T21:50:00.634Z,98850.67
2018-11-11T21:52:29.116Z,98856.36
2018-11-11T21:54:57.664Z,98849.52
2018-11-11T21:57:26.224Z,98855.05
2018-11-11T21:59:54.667Z,98852.73
2018-11-11T22:02:23.247Z,98855.52
2018-11-11T22:04:51.721Z,98852.38
2018-11-11T22:07:20.151Z,98853.95
2018-11-11T22:09:48.673Z,98855.28
2018-11-11T22:12:17.164Z,98841.92
2018-11-11T22:14:45.659Z,98839.45
2018-11-11T22:17:14.144Z,98840.27
2018-11-11T22:19:42.704Z,98843.25
2018-11-11T22:22:11.194Z,98844.40
2018-11-11T22:24:39.668Z,98847.72
2018-11-11T22:27:08.162Z,98847.91
2018-11-11T22:29:36.657Z,98848.73
2018-11-11T22:32:05.451Z,98847.34
2018-11-11T22:34:33.933Z,98851.11
2018-11-11T22:37:02.441Z,98870.56
2018-11-11T22:39:30.915Z,98867.60
2018-11-11T22:41:59.359Z,98864.94
2018-11-11T22:44:27.824Z,98864.14
2018-11-11T22:46:56.672Z,98861.14
2018-11-11T22:49:25.177Z,98854.39
2018-11-11T22:51:53.598Z,98849.59
2018-11-11T22:54:22.165Z,98844.46
2018-11-11T22:56:51.140Z,98849.45
2018-11-11T22:59:19.639Z,98841.84
2018-11-11T23:01:48.101Z,98846.92
2018-11-11T23:04:16.638Z,98847.73
2018-11-11T23:06:46.541Z,98840.55
2018-11-11T23:09:15.181Z,98845.62
2018-11-11T23:11:43.721Z,98818.72
2018-11-11T23:14:12.212Z,98848.03
2018-11-11T23:16:40.828Z,98850.25
2018-11-11T23:19:09.316Z,98850.76
2018-11-11T23:21:37.830Z,98856.82
2018-11-11T23:24:06.875Z,98859.34
2018-11-11T23:26:37.658Z,98857.63
2018-11-11T23:29:07.224Z,98855.61
2018-11-11T23:31:35.672Z,98860.88
2018-11-11T23:34:04.230Z,98862.28
2018-11-11T23:36:34.099Z,98863.39
2018-11-11T23:39:02.593Z,98867.59
2018-11-11T23:41:31.513Z,98855.75
2018-11-11T23:44:00.077Z,98854.84
2018-11-11T23:46:28.491Z,98848.25
2018-11-11T23:48:56.945Z,98847.70
2018-11-11T23:51:25.442Z,98845.26
2018-11-11T23:53:53.918Z,98842.20
2018-11-11T23:56:22.389Z,98855.22
2018-11-11T23:58:50.831Z,98855.39
